Simcha — PE7688 — position and weather

sailwx.info

Track history (hours):
 
Tides and Currents Weather Stations Pressure Air Temp Water Temp Dewpoint Dewpoint Depression Visibility Wind Speed Wind Dir Waves Ship Positions

Simcha

Last reported at 2016-Feb-12 11:33 UTC. Time now 2016-Feb-12 12:09 UTC.
Position N 52°31' E 006°03'.

Length 110 m.

Type: Ship. MMSI: 244780014.

Date/timePositionNaut miles runAvg speedWind from/ knotsBaromVisibWave heightAir tempDewpointWater temp
2016-Feb-12 11:33N 52°31' E 006°03'0 0.0
2016-Feb-12 10:33N 52°31' E 006°03'0 0.0
2016-Feb-12 09:33N 52°31' E 006°03'0 0.0
2016-Feb-12 08:33N 52°31' E 006°03'0 0.0
2016-Feb-12 07:33N 52°31' E 006°03'0 0.0
2016-Feb-12 06:33N 52°31' E 006°03'0 0.0
2016-Feb-12 05:26N 52°31' E 006°04'0 0.0
2016-Feb-11 21:30N 52°31' E 006°04'0 0.0
2016-Feb-11 20:31N 52°31' E 006°04'0 0.0
2016-Feb-11 19:32N 52°31' E 006°04'0 0.0
2016-Feb-11 18:33N 52°31' E 006°04'0 0.0
2016-Feb-11 17:32N 52°31' E 006°04'0 0.0
2016-Feb-11 16:32N 52°31' E 006°04'0 0.0
2016-Feb-11 15:32N 52°31' E 006°04'1 0.9
2016-Feb-11 14:33N 52°30' E 006°03'0 0.4
2016-Feb-11 13:24N 52°30' E 006°03'0 0.0
2016-Feb-11 12:30N 52°30' E 006°03'0 0.0
2016-Feb-10 14:04N 52°30' E 006°03'1 1.7
2016-Feb-10 13:34N 52°29' E 006°04'  
2016-Feb-08 09:19N 51°34' E 006°41'22 1.6
2016-Feb-07 19:27N 51°12' E 006°44'133 4.3
2016-Feb-06 12:19N 49°16' E 008°27'7 8.7
2016-Feb-06 11:34N 49°10' E 008°22'32 1.3
2016-Feb-05 10:18N 48°43' E 007°57'24 5.0
2016-Feb-05 05:33N 49°02' E 008°18'3 0.4
2016-Feb-04 20:33N 49°05' E 008°21'5 5.4
2016-Feb-04 19:33N 49°10' E 008°22'3 0.1
2016-Feb-03 14:33N 49°13' E 008°23'13 0.5
2016-Feb-02 12:14N 49°01' E 008°18'4 5.6
2016-Feb-02 11:34N 49°05' E 008°20'  
Track history (hours):
 
Tides and Currents Weather Stations Pressure Air Temp Water Temp Dewpoint Dewpoint Depression Visibility Wind Speed Wind Dir Waves Ship Positions

Simcha

Last reported at 2016-Feb-12 11:33 UTC. Time now 2016-Feb-12 12:09 UTC.
Position N 52°31' E 006°03'.

Length 110 m.

Type: Ship. MMSI: 244780014.

Date/timePositionNaut miles runAvg speedWind from/ knotsBaromVisibWave heightAir tempDewpointWater temp
2016-Feb-12 11:33N 52°31' E 006°03'0 0.0
2016-Feb-12 10:33N 52°31' E 006°03'0 0.0
2016-Feb-12 09:33N 52°31' E 006°03'0 0.0
2016-Feb-12 08:33N 52°31' E 006°03'0 0.0
2016-Feb-12 07:33N 52°31' E 006°03'0 0.0
2016-Feb-12 06:33N 52°31' E 006°03'0 0.0
2016-Feb-12 05:26N 52°31' E 006°04'0 0.0
2016-Feb-11 21:30N 52°31' E 006°04'0 0.0
2016-Feb-11 20:31N 52°31' E 006°04'0 0.0
2016-Feb-11 19:32N 52°31' E 006°04'0 0.0
2016-Feb-11 18:33N 52°31' E 006°04'0 0.0
2016-Feb-11 17:32N 52°31' E 006°04'0 0.0
2016-Feb-11 16:32N 52°31' E 006°04'0 0.0
2016-Feb-11 15:32N 52°31' E 006°04'1 0.9
2016-Feb-11 14:33N 52°30' E 006°03'0 0.4
2016-Feb-11 13:24N 52°30' E 006°03'0 0.0
2016-Feb-11 12:30N 52°30' E 006°03'0 0.0
2016-Feb-10 14:04N 52°30' E 006°03'1 1.7
2016-Feb-10 13:34N 52°29' E 006°04'  
2016-Feb-08 09:19N 51°34' E 006°41'22 1.6
2016-Feb-07 19:27N 51°12' E 006°44'133 4.3
2016-Feb-06 12:19N 49°16' E 008°27'7 8.7
2016-Feb-06 11:34N 49°10' E 008°22'32 1.3
2016-Feb-05 10:18N 48°43' E 007°57'24 5.0
2016-Feb-05 05:33N 49°02' E 008°18'3 0.4
2016-Feb-04 20:33N 49°05' E 008°21'5 5.4
2016-Feb-04 19:33N 49°10' E 008°22'3 0.1
2016-Feb-03 14:33N 49°13' E 008°23'13 0.5
2016-Feb-02 12:14N 49°01' E 008°18'4 5.6
2016-Feb-02 11:34N 49°05' E 008°20'  

Dump ship's entire track history